Deerfield Beach, FL (33441)

6:02 AM EDT on April 27, 2017 (GMT -0400)
Shorewood ,DEERFIELD Beach,Fl | | Change Station

Elev 20 ft 26.30 °N, 80.10 °W | Updated 33 seconds ago

Partly Cloudy
Partly Cloudy
77.5 °F
Feels Like 79 °F
N
0.0
Wind Variable Wind from NE

Today
High -- | Low -- °F
--% Chance of Precip.
Yesterday
High -- | Low -- °F
Precip. -- in
Pressure 29.90 in
Visibility 9.0 miles
Clouds Few 1600 ft
Heat Index 79 °F
Dew Point 71 °F
Humidity 81%
Rainfall 0.00 in
Snow Depth Not available.
6:45 AM 7:50 PM
New Moon, 1% visible
METAR KPMP 270953Z AUTO 15009KT 9SM FEW016 26/23 A2989 RMK AO2 SLP123 T02610228
Pressure 29.90 in
Visibility 9.0 miles
Clouds Few 1600 ft
Heat Index 79 °F
Dew Point 71 °F
Humidity 81%
Rainfall 0.00 in
Snow Depth Not available.
6:45 AM 7:50 PM
New Moon, 1% visible
METAR KPMP 270953Z AUTO 15009KT 9SM FEW016 26/23 A2989 RMK AO2 SLP123 T02610228

Get Severe Weather Alerts

Thanks for signing up!

Be on the lookout for a verification email in your inbox.

You'll start receiving the daily forecast at 8 AM.

×

10-Day Weather Forecast

Almanac

Astronomy

Apr. 27, 2017 Rise Set
Actual Time
Civil Twilight
Nautical Twilight
Astronomical Twilight
Moon
Length of Visible Light
Length of Day
Tomorrow will be .
, % of the Moon is Illuminated

Today's Extremes

State Highs State Lows

Community

WunderPhotos

WunderBlog® & News

Nearby

Air Quality

  Air Quality AQ Index Pollutant
Not available.

Snow Depth

Station Depth Elevation

Earthquake Activity

City Distance Mag. Time & Date
Minimum magnitude displayed is 2.5.

Coastal Water Temperatures

Place Temperature

Stations

Nearby Weather Stations

Station Location Temp. Windchill Dew Point Humidity Wind Precip. Elev Updated Type
                   

Watches & Warnings

There are currently no watches in effect.